Time;durP1;ratioP1;P1;durP2;ratioP2;P2;SDS_P1;SDS_P2;PMS_P1;PMS_P2;Temp;Humidity;BMP_temperature;BMP_pressure;BME280_temperature;BME280_humidity;BME280_pressure;Samples;Min_cycle;Max_cycle;Signal;HPM_P1;HPM_P2
2021/11/09 00:02:21;;;;;;;18.42;11.07;;;;;;;6.33;78.02;99263.38;5049599;28;20032;-66
2021/11/09 00:04:52;;;;;;;20.30;10.98;;;;;;;6.31;77.90;99271.81;5049596;28;20021;-66
2021/11/09 00:09:57;;;;;;;21.60;11.43;;;;;;;6.28;78.20;99261.41;5048164;28;20041;-66
2021/11/09 00:12:30;;;;;;;23.42;10.93;;;;;;;6.28;78.21;99272.31;5049226;28;20032;-66
2021/11/09 00:14:57;;;;;;;21.25;11.27;;;;;;;6.28;78.01;99280.50;5047936;28;20432;-66
2021/11/09 00:17:23;;;;;;;21.33;11.05;;;;;;;6.26;77.97;99279.91;5049653;28;20044;-66
2021/11/09 00:19:49;;;;;;;23.20;12.13;;;;;;;6.25;78.25;99281.81;5049894;28;20051;-68
2021/11/09 00:22:15;;;;;;;24.63;12.35;;;;;;;6.22;78.25;99282.31;5048997;28;20057;-67
2021/11/09 00:24:40;;;;;;;23.13;12.23;;;;;;;6.22;78.54;99286.94;5049703;28;20021;-66
2021/11/09 00:27:06;;;;;;;23.05;12.10;;;;;;;6.20;78.69;99289.91;5048288;28;20036;-67
2021/11/09 00:29:31;;;;;;;24.77;12.40;;;;;;;6.20;78.23;99289.06;5048636;28;20116;-67
2021/11/09 00:31:57;;;;;;;25.55;13.23;;;;;;;6.19;78.92;99284.69;5046627;28;20047;-68
2021/11/09 00:34:23;;;;;;;21.15;11.68;;;;;;;6.19;78.36;99287.41;5047169;28;20044;-68
2021/11/09 00:36:49;;;;;;;25.38;13.20;;;;;;;6.17;78.98;99289.56;5047454;28;20056;-69
2021/11/09 00:39:14;;;;;;;23.52;12.45;;;;;;;6.17;78.82;99290.41;5047864;28;20102;-68
2021/11/09 00:41:41;;;;;;;24.33;12.30;;;;;;;6.17;78.53;99289.56;5047766;28;20082;-68
2021/11/09 00:44:07;;;;;;;27.30;14.43;;;;;;;6.16;78.74;99299.66;5049705;28;20029;-68
2021/11/09 00:46:33;;;;;;;29.48;14.00;;;;;;;6.16;78.49;99296.91;5051816;28;20017;-68
2021/11/09 00:48:58;;;;;;;22.92;11.95;;;;;;;6.17;78.76;99295.00;5049952;28;20115;-68
2021/11/09 00:51:24;;;;;;;22.85;13.60;;;;;;;6.15;78.32;99295.25;5051797;28;20123;-69
2021/11/09 00:53:49;;;;;;;24.48;13.02;;;;;;;6.16;78.79;99288.75;5050540;28;20032;-68
2021/11/09 00:56:15;;;;;;;24.85;12.73;;;;;;;6.16;79.13;99298.81;5050153;28;20032;-69
2021/11/09 00:58:40;;;;;;;23.98;13.18;;;;;;;6.17;78.41;99292.28;5050981;28;20020;-70
2021/11/09 01:01:06;;;;;;;24.35;13.35;;;;;;;6.21;78.48;99299.72;5050980;28;20036;-67
2021/11/09 01:03:32;;;;;;;23.73;11.43;;;;;;;6.27;79.01;99299.81;5051124;28;20025;-68
2021/11/09 01:05:58;;;;;;;23.08;12.63;;;;;;;6.25;78.76;99306.34;5051414;28;20025;-68
2021/11/09 01:08:24;;;;;;;26.83;12.73;;;;;;;6.22;78.82;99304.09;5051307;28;20110;-68
2021/11/09 01:10:52;;;;;;;22.35;11.20;;;;;;;6.20;78.43;99306.25;5049696;28;20036;-68
2021/11/09 01:13:21;;;;;;;20.13;10.00;;;;;;;6.22;78.42;99303.28;5050876;28;20106;-68
2021/11/09 01:15:50;;;;;;;23.27;13.10;;;;;;;6.23;78.57;99313.09;5051010;28;20041;-68
2021/11/09 01:18:32;;;;;;;23.33;12.80;;;;;;;6.23;78.66;99315.81;5049419;28;20035;-69
2021/11/09 01:20:59;;;;;;;20.85;11.32;;;;;;;6.23;78.59;99319.38;5051914;28;20263;-69
2021/11/09 01:23:25;;;;;;;22.20;11.73;;;;;;;6.20;79.11;99311.69;5051280;28;20032;-68
2021/11/09 01:25:51;;;;;;;20.90;11.90;;;;;;;6.17;78.83;99306.75;5050268;28;20040;-68
2021/11/09 01:28:18;;;;;;;21.40;11.43;;;;;;;6.11;78.58;99308.53;5050558;28;20108;-68
2021/11/09 01:30:45;;;;;;;20.98;10.23;;;;;;;6.10;78.88;99306.91;5051028;28;20032;-68
2021/11/09 01:33:11;;;;;;;22.38;11.18;;;;;;;6.10;78.69;99315.09;5049023;28;20504;-69
2021/11/09 01:35:37;;;;;;;20.75;10.98;;;;;;;6.08;78.90;99321.81;5050730;28;20029;-68
2021/11/09 01:38:04;;;;;;;20.63;10.98;;;;;;;6.05;78.98;99319.59;5050503;28;20057;-68
2021/11/09 01:40:31;;;;;;;19.75;10.07;;;;;;;6.02;79.22;99317.34;5050553;28;20108;-68
2021/11/09 01:42:58;;;;;;;20.02;10.43;;;;;;;6.00;78.98;99316.75;5049196;28;20037;-68
2021/11/09 01:45:25;;;;;;;21.52;10.32;;;;;;;5.97;79.70;99309.91;5050678;28;20035;-68
2021/11/09 01:47:53;;;;;;;22.25;10.63;;;;;;;6.03;79.46;99319.00;5046656;28;20052;-68
2021/11/09 01:50:26;;;;;;;19.38;10.07;;;;;;;6.06;79.62;99319.38;5048312;28;20033;-68
2021/11/09 01:52:52;;;;;;;16.90;8.68;;;;;;;6.08;79.10;99324.56;5050521;28;20017;-67
2021/11/09 01:55:20;;;;;;;18.30;9.88;;;;;;;6.06;79.55;99321.25;5049490;28;20036;-68
2021/11/09 01:57:46;;;;;;;19.42;9.85;;;;;;;6.06;79.06;99326.69;5049972;28;20036;-69
2021/11/09 02:00:18;;;;;;;16.55;8.95;;;;;;;6.03;78.93;99319.84;5050480;28;20553;-68
2021/11/09 02:02:45;;;;;;;16.15;9.75;;;;;;;6.01;79.25;99321.16;5050323;28;20059;-68
2021/11/09 02:05:12;;;;;;;17.10;9.18;;;;;;;5.97;79.78;99324.31;5050111;28;20021;-68
2021/11/09 02:07:50;;;;;;;18.17;9.93;;;;;;;6.01;79.25;99329.31;5050451;28;20096;-68
2021/11/09 02:10:16;;;;;;;17.60;8.98;;;;;;;6.03;79.40;99329.91;5049450;28;20021;-68
2021/11/09 02:12:43;;;;;;;18.45;9.98;;;;;;;6.07;79.34;99334.63;5050265;28;20431;-69
2021/11/09 02:15:09;;;;;;;17.38;9.68;;;;;;;6.07;79.17;99329.19;5050392;28;20024;-68
2021/11/09 02:17:38;;;;;;;18.17;9.25;;;;;;;6.04;78.92;99332.41;5050036;28;20017;-68
2021/11/09 02:20:05;;;;;;;18.75;8.75;;;;;;;5.99;79.20;99320.53;5048480;28;20147;-68
2021/11/09 02:22:32;;;;;;;16.58;9.48;;;;;;;5.93;79.00;99327.78;5050133;28;20029;-68
2021/11/09 02:24:57;;;;;;;17.33;8.43;;;;;;;5.90;79.61;99337.28;5047784;28;20021;-69
2021/11/09 02:27:23;;;;;;;18.15;9.73;;;;;;;5.88;79.29;99342.16;5049957;28;20213;-68
2021/11/09 02:29:48;;;;;;;17.38;9.68;;;;;;;5.85;79.72;99341.78;5049502;28;20036;-68
2021/11/09 02:32:14;;;;;;;14.98;8.38;;;;;;;5.82;79.40;99337.69;5050161;28;20058;-69
2021/11/09 02:34:39;;;;;;;13.02;7.97;;;;;;;5.82;79.36;99351.28;5049744;28;20045;-69
2021/11/09 02:37:05;;;;;;;15.48;8.75;;;;;;;5.81;79.66;99349.63;5049913;28;20021;-69
2021/11/09 02:39:30;;;;;;;15.88;9.20;;;;;;;5.79;79.68;99349.88;5047936;28;20668;-69
2021/11/09 02:41:56;;;;;;;14.48;8.00;;;;;;;5.79;79.50;99351.78;5049677;28;20032;-68
2021/11/09 02:44:25;;;;;;;17.42;9.68;;;;;;;5.80;79.49;99358.88;5049492;28;20036;-67
2021/11/09 02:46:53;;;;;;;12.77;7.87;;;;;;;5.77;79.47;99362.88;5049630;28;20100;-68
2021/11/09 02:51:53;;;;;;;16.20;8.52;;;;;;;5.84;79.52;99368.22;5049379;28;20498;-67
2021/11/09 02:54:26;;;;;;;18.05;9.30;;;;;;;5.89;79.64;99367.47;5049569;28;20036;-67
2021/11/09 03:02:34;;;;;;;19.20;10.05;;;;;;;5.88;79.23;99374.81;5047496;28;20500;-67
2021/11/09 03:12:45;;;;;;;15.85;9.20;;;;;;;5.88;79.34;99384.88;5022901;28;20044;-68
2021/11/09 03:15:17;;;;;;;17.08;9.25;;;;;;;5.90;79.45;99389.03;5047703;28;20025;-69
2021/11/09 03:17:47;;;;;;;17.67;9.23;;;;;;;5.90;79.22;99396.34;5049043;28;20470;-70
2021/11/09 03:20:24;;;;;;;15.73;9.00;;;;;;;5.99;79.33;99399.50;5049961;28;20085;-68
2021/11/09 03:47:14;;;;;;;29.15;11.60;;;;;;;5.99;79.24;99424.00;5049212;28;20497;-68
2021/11/09 03:49:41;;;;;;;23.23;9.35;;;;;;;5.99;79.66;99413.97;5049237;28;20021;-68
2021/11/09 03:52:13;;;;;;;19.20;9.25;;;;;;;5.95;79.42;99415.50;5049528;28;20037;-69
2021/11/09 03:54:39;;;;;;;21.80;9.15;;;;;;;5.92;79.54;99422.25;5047610;28;20470;-69
2021/11/09 04:04:46;;;;;;;18.30;8.40;;;;;;;5.94;79.55;99422.03;5047709;28;20677;-69
2021/11/09 04:07:21;;;;;;;14.95;8.95;;;;;;;5.95;79.50;99426.41;5050668;28;20028;-69
2021/11/09 04:30:31;;;;;;;15.70;8.25;;;;;;;6.00;79.41;99442.00;5053688;28;20041;-69
2021/11/09 04:49:54;;;;;;;17.48;10.18;;;;;;;5.96;79.55;99464.28;5054095;28;20087;-69
2021/11/09 05:11:28;;;;;;;27.27;14.27;;;;;;;6.01;79.76;99496.28;5053082;28;20067;-69
2021/11/09 05:13:54;;;;;;;25.27;11.95;;;;;;;6.02;79.95;99492.50;5053661;28;20469;-69
2021/11/09 05:16:19;;;;;;;26.60;11.90;;;;;;;6.04;79.81;99494.94;5051867;28;20032;-69
2021/11/09 05:18:45;;;;;;;40.42;17.00;;;;;;;6.03;79.76;99496.03;5054021;28;20055;-69
2021/11/09 05:21:10;;;;;;;41.47;18.75;;;;;;;6.06;79.42;99503.72;5053459;28;20066;-69
2021/11/09 05:23:36;;;;;;;62.75;27.00;;;;;;;6.04;79.82;99506.69;5053465;28;20089;-69
2021/11/09 05:26:02;;;;;;;67.93;31.02;;;;;;;6.08;79.35;99515.19;5052652;28;20064;-69
2021/11/09 05:28:28;;;;;;;40.40;20.08;;;;;;;6.10;79.59;99510.34;5053481;28;20103;-69
2021/11/09 05:30:53;;;;;;;37.78;18.08;;;;;;;6.10;79.33;99508.47;5051652;28;20124;-69
2021/11/09 05:33:21;;;;;;;25.83;14.25;;;;;;;6.10;79.50;99513.06;5051879;28;20033;-68
2021/11/09 05:35:49;;;;;;;22.13;12.27;;;;;;;6.10;79.51;99508.47;5053018;28;20036;-69
2021/11/09 05:38:17;;;;;;;20.08;10.75;;;;;;;6.13;79.86;99515.31;5051742;28;20040;-67
2021/11/09 05:40:52;;;;;;;23.08;12.88;;;;;;;6.06;79.60;99520.06;5053059;28;20036;-68
2021/11/09 05:43:17;;;;;;;30.52;13.07;;;;;;;6.01;79.79;99526.22;5053345;28;20024;-67
2021/11/09 05:45:43;;;;;;;26.70;13.95;;;;;;;6.01;79.76;99531.69;5052852;28;20028;-68
2021/11/09 05:48:08;;;;;;;28.38;13.63;;;;;;;6.03;79.55;99537.72;5052509;28;20029;-68
2021/11/09 05:50:34;;;;;;;26.45;13.63;;;;;;;6.01;79.88;99542.56;5052662;28;20044;-68
2021/11/09 05:52:59;;;;;;;77.10;35.03;;;;;;;5.99;79.88;99541.09;5052781;28;20033;-67
2021/11/09 05:55:25;;;;;;;30.88;15.15;;;;;;;5.99;80.15;99552.84;5052864;28;20097;-67
2021/11/09 05:57:50;;;;;;;25.38;13.38;;;;;;;5.99;80.34;99561.00;5052607;28;20428;-68
2021/11/09 06:00:16;;;;;;;23.40;11.68;;;;;;;6.03;80.36;99561.38;5051048;28;20043;-67
2021/11/09 06:02:42;;;;;;;27.60;13.38;;;;;;;6.03;80.21;99559.50;5049087;28;20461;-68
2021/11/09 06:05:08;;;;;;;27.52;12.63;;;;;;;6.10;80.46;99570.25;5052635;28;20021;-68
2021/11/09 06:07:35;;;;;;;27.13;12.05;;;;;;;6.14;79.99;99565.16;5051404;28;20039;-67
2021/11/09 06:10:00;;;;;;;31.98;14.77;;;;;;;6.17;80.15;99581.00;5052783;28;20024;-67
2021/11/09 06:12:25;;;;;;;35.50;15.88;;;;;;;6.16;80.04;99582.91;5052217;28;20032;-67
2021/11/09 06:14:51;;;;;;;30.08;12.70;;;;;;;6.14;79.84;99595.94;5052297;28;20037;-67
2021/11/09 06:17:16;;;;;;;27.50;12.30;;;;;;;6.15;80.10;99599.50;5051786;28;20514;-67
2021/11/09 06:19:42;;;;;;;26.02;11.55;;;;;;;6.16;79.88;99607.44;5054347;28;20028;-68
2021/11/09 06:22:08;;;;;;;17.05;8.48;;;;;;;6.13;80.04;99602.47;5052491;28;20064;-68
2021/11/09 06:24:33;;;;;;;16.85;9.60;;;;;;;6.12;80.08;99617.16;5052550;28;20491;-68
2021/11/09 06:26:59;;;;;;;23.75;10.95;;;;;;;6.09;79.99;99620.34;5050119;28;20032;-68
2021/11/09 06:29:25;;;;;;;29.00;12.88;;;;;;;6.08;79.93;99618.69;5052330;28;20036;-68
2021/11/09 06:31:52;;;;;;;15.95;8.85;;;;;;;6.07;80.14;99626.03;5049956;28;20080;-67
2021/11/09 06:34:18;;;;;;;21.70;13.52;;;;;;;6.06;80.07;99634.44;5052566;28;20497;-68
2021/11/09 06:36:44;;;;;;;15.88;8.65;;;;;;;6.08;80.46;99638.59;5052090;28;20037;-68
2021/11/09 06:39:09;;;;;;;20.65;10.07;;;;;;;6.11;80.35;99640.00;5051823;28;20402;-67
2021/11/09 06:41:36;;;;;;;15.40;9.57;;;;;;;6.08;80.10;99648.66;5049480;28;20049;-68
2021/11/09 06:44:02;;;;;;;16.00;8.15;;;;;;;6.08;80.25;99646.78;5052192;28;20394;-68
2021/11/09 06:46:28;;;;;;;12.27;7.82;;;;;;;6.08;80.23;99656.81;5051753;28;20079;-68
2021/11/09 06:48:53;;;;;;;15.02;8.27;;;;;;;6.05;80.31;99660.84;5052051;28;20108;-67
2021/11/09 06:51:19;;;;;;;16.90;10.15;;;;;;;6.00;80.39;99663.47;5051786;28;20025;-66
2021/11/09 06:53:44;;;;;;;16.55;9.40;;;;;;;6.01;80.36;99669.72;5051962;28;20033;-67
2021/11/09 06:56:10;;;;;;;19.60;9.90;;;;;;;6.02;80.32;99671.38;5051100;28;20045;-67
2021/11/09 06:58:36;;;;;;;23.75;11.77;;;;;;;6.05;81.35;99681.81;5051204;28;20082;-67
2021/11/09 07:01:04;;;;;;;18.50;10.65;;;;;;;6.08;80.97;99686.78;5051197;28;20032;-67
2021/11/09 07:03:30;;;;;;;21.02;11.43;;;;;;;6.10;80.52;99699.13;5051796;28;20067;-67
2021/11/09 07:05:56;;;;;;;20.27;11.68;;;;;;;6.13;80.76;99686.91;5050188;28;20090;-67
2021/11/09 07:08:22;;;;;;;20.55;10.80;;;;;;;6.18;80.54;99688.91;5052789;28;20032;-68
2021/11/09 07:10:48;;;;;;;21.40;11.23;;;;;;;6.23;80.78;99692.59;5051301;28;20036;-68
2021/11/09 07:13:14;;;;;;;19.92;11.32;;;;;;;6.26;80.62;99707.63;5052244;28;20033;-69
2021/11/09 07:15:40;;;;;;;68.13;31.45;;;;;;;6.25;80.42;99704.09;5051411;28;20028;-69
2021/11/09 07:18:07;;;;;;;135.05;52.08;;;;;;;6.25;80.75;99716.88;5051221;28;20074;-69
2021/11/09 07:20:33;;;;;;;65.18;31.45;;;;;;;6.28;80.63;99716.41;5053177;28;20458;-68
2021/11/09 07:23:00;;;;;;;31.60;16.38;;;;;;;6.30;80.57;99719.72;5051223;28;20104;-69
2021/11/09 07:25:26;;;;;;;20.80;11.63;;;;;;;6.32;80.12;99724.91;5051409;28;20059;-69
2021/11/09 07:27:52;;;;;;;22.48;12.43;;;;;;;6.33;80.40;99723.84;5051564;28;20069;-69
2021/11/09 07:30:18;;;;;;;19.17;11.90;;;;;;;6.38;80.57;99733.00;5050732;28;20029;-69
2021/11/09 07:32:46;;;;;;;19.33;11.82;;;;;;;6.41;80.59;99734.41;5050179;28;20024;-68
2021/11/09 07:35:12;;;;;;;21.20;11.32;;;;;;;6.45;80.90;99734.78;5051337;28;20041;-67
2021/11/09 07:37:38;;;;;;;25.13;14.48;;;;;;;6.46;80.25;99745.41;5052603;28;20397;-67
2021/11/09 07:40:05;;;;;;;26.33;14.48;;;;;;;6.45;80.48;99746.50;5051036;28;20025;-68
2021/11/09 07:42:31;;;;;;;25.42;13.43;;;;;;;6.51;80.69;99756.44;5049854;28;20029;-68
2021/11/09 07:44:57;;;;;;;20.42;11.25;;;;;;;6.58;80.48;99758.22;5050744;28;20051;-67
2021/11/09 07:47:24;;;;;;;20.20;12.15;;;;;;;6.62;80.50;99760.22;5050424;28;20151;-68
2021/11/09 07:49:50;;;;;;;23.60;12.73;;;;;;;6.61;80.12;99757.75;5046908;28;20029;-69
2021/11/09 07:52:15;;;;;;;18.88;10.70;;;;;;;6.65;80.25;99758.94;5043480;28;20021;-68
2021/11/09 07:54:45;;;;;;;21.45;12.93;;;;;;;6.71;80.11;99774.34;5047852;28;20055;-70
2021/11/09 07:57:13;;;;;;;21.60;13.38;;;;;;;6.75;80.16;99772.78;5043997;28;20386;-69
2021/11/09 07:59:51;;;;;;;33.20;15.45;;;;;;;6.72;80.16;99776.00;5045567;28;20031;-69
2021/11/09 08:04:53;;;;;;;20.15;10.93;;;;;;;6.73;80.54;99785.81;5049120;28;20068;-69
2021/11/09 08:07:23;;;;;;;21.27;10.93;;;;;;;6.79;80.43;99786.78;5046084;28;20029;-69
2021/11/09 08:09:49;;;;;;;25.30;12.77;;;;;;;6.77;80.25;99787.00;5045983;28;20032;-69
2021/11/09 08:12:15;;;;;;;20.17;12.50;;;;;;;6.81;80.31;99795.56;5048769;28;20021;-72
2021/11/09 08:14:40;;;;;;;22.05;12.40;;;;;;;6.81;79.95;99801.00;5045161;28;20397;-71
2021/11/09 08:17:06;;;;;;;17.92;10.75;;;;;;;6.81;79.81;99795.56;5048302;28;20489;-69
2021/11/09 08:19:31;;;;;;;23.50;13.65;;;;;;;6.79;79.86;99803.94;5048525;28;20029;-67
2021/11/09 08:21:58;;;;;;;22.13;12.48;;;;;;;6.83;79.71;99805.13;5048224;28;20086;-69
2021/11/09 08:24:24;;;;;;;16.67;9.80;;;;;;;6.84;79.99;99804.06;5048426;28;20029;-69
2021/11/09 08:26:53;;;;;;;17.50;10.02;;;;;;;6.90;80.05;99821.41;5048317;28;20518;-70
2021/11/09 08:29:23;;;;;;;84.35;29.92;;;;;;;6.96;79.84;99817.69;5047799;28;20025;-68
2021/11/09 08:31:49;;;;;;;30.40;14.93;;;;;;;6.96;80.07;99825.06;5048815;28;20033;-70
2021/11/09 08:34:15;;;;;;;89.40;37.47;;;;;;;6.98;80.09;99831.09;5048365;28;20047;-69
2021/11/09 08:36:44;;;;;;;34.53;21.38;;;;;;;7.02;80.20;99832.28;5046791;28;20566;-69
2021/11/09 08:39:13;;;;;;;20.40;14.60;;;;;;;7.14;79.83;99829.53;5048302;28;20028;-69
2021/11/09 08:41:52;;;;;;;17.20;12.23;;;;;;;7.20;79.61;99835.94;5048163;28;20083;-69
2021/11/09 08:44:25;;;;;;;12.27;7.38;;;;;;;7.30;79.76;99834.28;5045774;28;20029;-73
2021/11/09 08:46:57;;;;;;;16.20;9.20;;;;;;;7.32;79.70;99839.47;5047906;28;20025;-69
2021/11/09 08:49:25;;;;;;;15.57;9.60;;;;;;;7.35;79.76;99841.72;5048427;28;20515;-72
2021/11/09 08:51:54;;;;;;;14.88;8.80;;;;;;;7.40;79.91;99855.47;5045256;28;20033;-71
2021/11/09 08:54:23;;;;;;;14.02;8.00;;;;;;;7.48;79.83;99856.19;5045748;28;20051;-71
2021/11/09 09:05:13;;;;;;;27.58;21.75;;;;;;;7.47;79.20;99865.44;5046217;28;20120;-68
2021/11/09 09:07:39;;;;;;;15.40;10.60;;;;;;;7.54;79.50;99869.69;5050057;28;20124;-68
2021/11/09 09:10:07;;;;;;;18.02;11.27;;;;;;;7.55;79.48;99881.41;5051162;28;20485;-69
2021/11/09 09:12:35;;;;;;;12.80;8.13;;;;;;;7.55;79.07;99878.69;5052272;28;20033;-72
2021/11/09 09:15:03;;;;;;;12.02;8.07;;;;;;;7.59;79.08;99885.34;5051903;28;20465;-70
2021/11/09 09:17:29;;;;;;;15.95;9.43;;;;;;;7.62;79.10;99881.31;5052276;28;20416;-70
2021/11/09 09:20:00;;;;;;;11.75;8.77;;;;;;;7.67;79.11;99890.41;5051339;28;20438;-70
2021/11/09 09:22:35;;;;;;;18.63;12.40;;;;;;;7.71;78.81;99885.31;5049405;28;20037;-69
2021/11/09 09:25:15;;;;;;;17.33;10.60;;;;;;;7.68;78.58;99889.34;5051135;28;20037;-69
2021/11/09 09:28:18;;;;;;;21.67;13.48;;;;;;;7.76;78.89;99899.06;5051491;28;20059;-68
2021/11/09 09:30:35;;;;;;;18.00;10.38;;;;;;;7.74;78.77;99896.59;5049847;28;20124;-69
2021/11/09 09:55:01;;;;;;;19.38;9.77;;;;;;;7.83;77.89;99926.25;5049369;28;20504;-67
2021/11/09 09:57:28;;;;;;;15.90;8.50;;;;;;;7.90;78.17;99929.69;5050833;28;20027;-68
2021/11/09 09:59:55;;;;;;;13.35;7.95;;;;;;;7.89;78.07;99926.09;5047313;28;20020;-68
2021/11/09 10:02:28;;;;;;;16.55;9.55;;;;;;;7.93;78.31;99917.44;5047815;28;20021;-68
2021/11/09 10:05:01;;;;;;;13.68;8.55;;;;;;;7.99;78.19;99921.94;5046878;28;20100;-69
2021/11/09 10:07:33;;;;;;;14.45;9.32;;;;;;;8.02;77.69;99930.44;5046434;28;20504;-71
2021/11/09 10:10:00;;;;;;;13.65;8.48;;;;;;;8.07;78.04;99929.75;5047830;28;20040;-70
2021/11/09 10:12:33;;;;;;;20.00;11.45;;;;;;;8.13;77.69;99928.78;5045252;28;20405;-69
2021/11/09 10:15:05;;;;;;;30.65;14.60;;;;;;;8.12;77.20;99929.00;5047057;28;20465;-72
2021/11/09 10:17:34;;;;;;;23.40;13.32;;;;;;;8.09;77.29;99932.22;5041752;28;20029;-69
2021/11/09 10:20:19;;;;;;;70.43;31.75;;;;;;;8.12;77.50;99929.84;5050113;28;20496;-70
2021/11/09 10:22:57;;;;;;;50.83;25.52;;;;;;;8.20;77.55;99934.91;5050128;28;20047;-70
2021/11/09 10:25:24;;;;;;;38.95;20.27;;;;;;;8.26;77.21;99935.84;5049040;28;20037;-71
2021/11/09 10:27:53;;;;;;;42.75;21.92;;;;;;;8.28;77.22;99939.16;5050591;28;20025;-67
2021/11/09 10:30:24;;;;;;;22.50;13.95;;;;;;;8.33;77.27;99939.25;5049572;28;20025;-68
2021/11/09 10:32:50;;;;;;;28.48;14.20;;;;;;;8.38;76.95;99943.13;5047413;28;20461;-68
2021/11/09 10:35:17;;;;;;;22.73;12.02;;;;;;;8.46;77.16;99948.22;5050776;28;20068;-68
2021/11/09 10:37:54;;;;;;;20.80;10.68;;;;;;;8.50;76.81;99949.41;5051134;28;20032;-69
2021/11/09 10:40:22;;;;;;;19.52;13.13;;;;;;;8.57;76.96;99949.25;5051170;28;20025;-66
2021/11/09 10:42:52;;;;;;;18.33;13.27;;;;;;;8.57;76.70;99954.72;5050846;28;20059;-69
2021/11/09 10:45:21;;;;;;;23.70;14.50;;;;;;;8.62;76.72;99955.66;5049143;28;20029;-67
2021/11/09 10:47:50;;;;;;;22.38;14.88;;;;;;;8.67;76.86;99954.91;5051667;28;20029;-68
2021/11/09 10:50:21;;;;;;;19.85;11.50;;;;;;;8.71;75.59;99944.31;5051228;28;20016;-66
2021/11/09 10:53:00;;;;;;;8.45;5.68;;;;;;;8.74;75.84;99950.13;5050619;28;20607;-67
2021/11/09 11:03:17;;;;;;;7.90;5.35;;;;;;;8.69;75.25;99950.03;5042230;28;20072;-67
2021/11/09 11:06:20;;;;;;;16.15;12.48;;;;;;;8.66;75.43;99964.19;5048736;28;20041;-67
2021/11/09 11:08:50;;;;;;;16.17;11.80;;;;;;;8.70;75.05;99959.88;5049699;28;20381;-66
2021/11/09 11:11:33;;;;;;;16.58;12.93;;;;;;;8.72;75.55;99965.94;5050181;28;20477;-65
2021/11/09 11:14:21;;;;;;;16.50;9.27;;;;;;;8.78;75.33;99966.84;5048165;28;20485;-65
2021/11/09 11:16:50;;;;;;;10.80;5.93;;;;;;;8.78;75.67;99966.84;5050673;28;20108;-66
2021/11/09 11:19:25;;;;;;;8.10;5.63;;;;;;;8.73;74.77;99961.31;5047518;28;20017;-66
2021/11/09 11:21:51;;;;;;;6.85;4.57;;;;;;;8.70;74.92;99965.34;5047232;28;20374;-67
2021/11/09 11:24:17;;;;;;;8.20;5.82;;;;;;;8.64;74.41;99978.13;5048786;28;20020;-68
2021/11/09 11:26:45;;;;;;;13.10;7.40;;;;;;;8.60;74.74;99971.47;5048564;28;20047;-66
2021/11/09 11:29:18;;;;;;;14.07;6.65;;;;;;;8.59;74.81;99979.91;5048531;28;20106;-68
2021/11/09 11:31:45;;;;;;;17.35;8.88;;;;;;;8.62;74.99;99977.53;5048228;28;20029;-67
2021/11/09 11:34:10;;;;;;;9.85;5.88;;;;;;;8.63;75.21;99983.81;5049255;28;20159;-66
2021/11/09 11:36:36;;;;;;;8.48;5.32;;;;;;;8.60;74.34;99985.16;5050765;28;20024;-68
2021/11/09 11:39:06;;;;;;;9.18;5.28;;;;;;;8.64;74.94;99990.97;5049412;28;20485;-68
2021/11/09 11:41:36;;;;;;;11.10;6.45;;;;;;;8.62;74.60;99993.94;5050075;28;20091;-67
2021/11/09 11:44:06;;;;;;;;;;;;;;;8.63;74.05;99987.41;5050041;28;20118;-67
2021/11/09 11:46:35;;;;;;;7.78;5.47;;;;;;;8.67;74.47;99990.47;5048668;28;20293;-67
2021/11/09 11:49:11;;;;;;;9.23;5.60;;;;;;;8.64;73.99;99986.34;5047168;28;20540;-68
2021/11/09 11:51:44;;;;;;;7.75;5.47;;;;;;;8.65;74.48;99987.16;5048364;28;20033;-67
2021/11/09 11:54:10;;;;;;;7.70;5.03;;;;;;;8.63;74.01;99995.59;5048632;28;20111;-68
2021/11/09 11:56:39;;;;;;;7.57;5.35;;;;;;;8.59;73.58;99985.38;5049569;28;20035;-68
2021/11/09 11:59:06;;;;;;;7.97;4.85;;;;;;;8.58;73.66;99992.78;5049421;28;20140;-68
2021/11/09 12:01:39;;;;;;;10.95;6.57;;;;;;;8.62;74.33;99990.38;5045904;28;20029;-67
2021/11/09 12:04:08;;;;;;;13.35;7.43;;;;;;;8.62;73.52;99988.47;5041492;28;20025;-69
2021/11/09 12:06:51;;;;;;;19.90;10.87;;;;;;;8.59;74.03;99999.91;5049061;28;20029;-68
2021/11/09 12:09:33;;;;;;;10.15;5.35;;;;;;;8.56;73.44;99999.59;5044458;28;20286;-68
2021/11/09 12:12:19;;;;;;;7.88;4.65;;;;;;;8.55;73.61;99993.25;5048490;28;20362;-69
2021/11/09 12:14:51;;;;;;;7.35;4.88;;;;;;;8.55;73.67;99993.25;5049849;28;20021;-68
2021/11/09 12:17:35;;;;;;;6.80;4.45;;;;;;;8.58;74.25;99995.50;5048549;28;20025;-68
2021/11/09 12:20:14;;;;;;;8.55;4.88;;;;;;;8.55;73.35;99990.53;5049459;28;20029;-68
2021/11/09 12:22:50;;;;;;;17.60;9.73;;;;;;;8.53;73.44;99992.69;5049111;28;20057;-67
2021/11/09 12:25:34;;;;;;;18.35;9.27;;;;;;;8.54;73.47;99991.59;5048474;28;20029;-70
2021/11/09 12:28:05;;;;;;;18.67;9.57;;;;;;;8.57;73.79;99993.84;5047570;28;20481;-68
2021/11/09 12:30:34;;;;;;;20.70;9.95;;;;;;;8.63;73.50;99994.75;5047387;28;20029;-69
2021/11/09 12:33:11;;;;;;;14.17;7.97;;;;;;;8.65;73.66;99981.69;5043510;28;20021;-71
2021/11/09 12:35:38;;;;;;;10.68;6.13;;;;;;;8.68;73.13;99985.84;5043953;28;20033;-70
2021/11/09 12:38:32;;;;;;;9.13;5.88;;;;;;;8.69;73.49;99995.72;5043536;28;20037;-69
2021/11/09 12:41:08;;;;;;;13.35;7.25;;;;;;;8.64;73.83;99989.06;5037307;28;20052;-68
2021/11/09 12:43:34;;;;;;;12.65;8.05;;;;;;;8.70;73.88;99994.63;5046828;28;20021;-67
2021/11/09 12:46:06;;;;;;;15.40;8.40;;;;;;;8.81;73.95;99999.19;5052510;28;20102;-67
2021/11/09 12:48:35;;;;;;;25.83;18.55;;;;;;;8.93;73.85;99990.94;5052426;28;20433;-67
2021/11/09 12:51:04;;;;;;;27.55;18.85;;;;;;;8.93;74.04;99986.28;5049738;28;20028;-67
2021/11/09 12:53:30;;;;;;;21.38;12.35;;;;;;;8.90;73.33;99992.25;5050436;28;20680;-67
2021/11/09 12:56:09;;;;;;;21.35;10.68;;;;;;;8.85;73.15;99985.84;5052545;28;20028;-68
2021/11/09 12:58:44;;;;;;;18.27;9.97;;;;;;;8.81;73.70;99984.69;5048581;28;20025;-66
2021/11/09 13:04:02;;;;;;;15.48;7.68;;;;;;;8.68;73.54;99983.91;5049752;28;20124;-70
2021/11/09 13:06:38;;;;;;;47.95;19.58;;;;;;;8.67;73.84;99984.19;5051281;28;20079;-69
2021/11/09 13:09:13;;;;;;;21.42;10.40;;;;;;;8.64;73.94;99986.34;5051171;28;20017;-67
2021/11/09 13:11:43;;;;;;;14.43;8.32;;;;;;;8.62;73.54;99987.63;5050235;28;20044;-68
2021/11/09 13:14:09;;;;;;;;;;;;;;;8.59;73.77;99988.13;5053317;28;20033;-66
2021/11/09 13:16:50;;;;;;;14.90;8.88;;;;;;;8.58;73.65;99990.03;5051049;28;20015;-67
2021/11/09 13:19:17;;;;;;;19.48;10.52;;;;;;;8.60;73.56;99995.25;5048333;28;20025;-68
2021/11/09 13:21:51;;;;;;;17.35;9.45;;;;;;;8.56;74.11;99983.97;5051770;28;20035;-67
2021/11/09 13:24:19;;;;;;;19.77;10.80;;;;;;;8.53;73.63;99992.69;5049959;28;20032;-66
2021/11/09 13:26:53;;;;;;;19.75;11.27;;;;;;;8.48;73.54;99998.91;5051530;28;20100;-66
2021/11/09 13:29:21;;;;;;;21.55;11.93;;;;;;;8.43;73.99;99985.09;5047673;28;20029;-66
2021/11/09 13:31:46;;;;;;;20.35;10.27;;;;;;;8.39;73.58;99986.66;5051125;28;20032;-67
2021/11/09 13:34:12;;;;;;;13.10;7.78;;;;;;;8.40;73.71;99982.00;5050092;28;20124;-70
2021/11/09 13:36:38;;;;;;;17.00;10.27;;;;;;;8.41;73.67;99989.97;5051883;28;20044;-66
2021/11/09 13:39:04;;;;;;;42.83;19.25;;;;;;;8.42;73.60;99980.69;5051955;28;20033;-66
2021/11/09 13:41:31;;;;;;;62.33;24.88;;;;;;;8.44;73.70;99980.44;5051430;28;20074;-66
2021/11/09 13:44:15;;;;;;;32.83;13.80;;;;;;;8.45;74.02;99987.56;5053060;28;20389;-66
2021/11/09 13:46:43;;;;;;;79.95;40.55;;;;;;;8.49;73.82;99984.16;5051559;28;20059;-66
2021/11/09 13:49:19;;;;;;;44.90;21.85;;;;;;;8.55;74.15;99981.50;5052585;28;20028;-66
2021/11/09 13:51:57;;;;;;;27.52;14.32;;;;;;;8.62;74.01;99982.16;5051726;28;20441;-66
2021/11/09 13:54:25;;;;;;;34.22;18.40;;;;;;;8.70;73.78;99981.78;5053120;28;20094;-66
2021/11/09 13:56:55;;;;;;;23.33;12.80;;;;;;;8.80;74.04;99986.59;5052582;28;20021;-66
2021/11/09 13:59:31;;;;;;;22.10;11.90;;;;;;;8.82;73.89;99980.88;5052418;28;20029;-68
2021/11/09 14:10:35;;;;;;;30.25;16.98;;;;;;;8.85;74.06;99994.88;5051922;28;20041;-65
2021/11/09 14:18:23;;;;;;;36.15;19.73;;;;;;;8.84;73.95;99992.41;5052448;28;20037;-66
2021/11/09 14:20:49;;;;;;;46.80;26.20;;;;;;;8.78;74.11;99989.59;5053626;28;20061;-66
2021/11/09 14:23:14;;;;;;;58.33;33.47;;;;;;;8.74;73.85;99982.13;5045660;28;20665;-65